createdAt,value
2019-06-27T00:02:38.999Z,25.2
2019-06-27T00:07:41.395Z,25.1
2019-06-27T00:12:43.844Z,25
2019-06-27T00:17:46.289Z,24.9
2019-06-27T00:22:48.747Z,24.8
2019-06-27T00:27:51.217Z,24.7
2019-06-27T00:32:53.701Z,24.6
2019-06-27T00:37:56.199Z,24.6
2019-06-27T00:42:58.515Z,24.5
2019-06-27T00:48:01.036Z,24.4
2019-06-27T00:53:03.363Z,24.3
2019-06-27T01:03:08.282Z,24.2
2019-06-27T01:08:10.728Z,24.1
2019-06-27T01:13:13.137Z,24
2019-06-27T01:18:15.621Z,23.9
2019-06-27T01:23:18.026Z,23.8
2019-06-27T01:28:20.585Z,23.7
2019-06-27T01:33:22.928Z,23.6
2019-06-27T01:38:25.359Z,23.5
2019-06-27T01:43:27.791Z,23.5
2019-06-27T01:48:30.494Z,23.4
2019-06-27T01:53:32.655Z,23.3
2019-06-27T01:58:35.196Z,23.3
2019-06-27T02:03:37.542Z,23.3
2019-06-27T02:08:40.033Z,23.2
2019-06-27T02:13:42.444Z,23.2
2019-06-27T02:23:47.337Z,23
2019-06-27T02:28:49.898Z,23
2019-06-27T02:33:52.212Z,23
2019-06-27T02:38:54.826Z,23
2019-06-27T02:43:57.173Z,22.9
2019-06-27T02:49:00.141Z,22.9
2019-06-27T02:54:02.036Z,22.8
2019-06-27T02:59:04.404Z,22.7
2019-06-27T03:04:06.861Z,22.7
2019-06-27T03:09:09.540Z,22.6
2019-06-27T03:14:11.754Z,22.5
2019-06-27T03:19:14.333Z,22.4
2019-06-27T03:24:16.622Z,22.3
2019-06-27T03:29:20.477Z,22.1
2019-06-27T03:34:21.721Z,22.1
2019-06-27T03:39:23.971Z,22
2019-06-27T03:44:26.388Z,22
2019-06-27T03:49:28.829Z,22.1
2019-06-27T03:54:31.259Z,22.1
2019-06-27T03:59:33.762Z,22
2019-06-27T04:04:36.176Z,22
2019-06-27T04:09:38.584Z,21.9
2019-06-27T04:14:41.040Z,21.7
2019-06-27T04:19:43.509Z,21.6
2019-06-27T04:24:45.912Z,21.5
2019-06-27T04:29:48.402Z,21.4
2019-06-27T04:34:50.817Z,21.4
2019-06-27T04:39:53.472Z,21.3
2019-06-27T04:44:55.701Z,21.2
2019-06-27T04:49:58.204Z,21.2
2019-06-27T04:55:03.237Z,21.1
2019-06-27T05:00:03.041Z,21.2
2019-06-27T05:05:05.493Z,21.3
2019-06-27T05:10:07.892Z,21.4
2019-06-27T05:20:12.783Z,21.3
2019-06-27T05:25:15.224Z,21.1
2019-06-27T05:30:17.699Z,20.9
2019-06-27T05:40:22.558Z,20.7
2019-06-27T05:45:25.001Z,20.8
2019-06-27T05:50:27.595Z,20.8
2019-06-27T05:55:30.046Z,20.9
2019-06-27T06:00:32.313Z,21
2019-06-27T06:05:34.833Z,21
2019-06-27T06:10:37.182Z,21
2019-06-27T06:15:39.697Z,20.9
2019-06-27T06:20:42.135Z,20.9
2019-06-27T06:25:44.574Z,20.8
2019-06-27T06:30:46.985Z,20.8
2019-06-27T06:35:49.422Z,20.7
2019-06-27T06:40:51.854Z,20.6
2019-06-27T06:45:54.298Z,20.6
2019-06-27T06:50:56.715Z,20.4
2019-06-27T06:55:59.237Z,20.4
2019-06-27T07:01:02.614Z,20.3
2019-06-27T07:06:04.048Z,20.2
2019-06-27T07:11:06.520Z,20.2
2019-06-27T07:16:08.934Z,20.3
2019-06-27T07:21:11.367Z,20.6
2019-06-27T07:26:13.826Z,20.4
2019-06-27T07:31:17.970Z,20.4
2019-06-27T07:36:18.786Z,20.4
2019-06-27T07:41:21.191Z,20.3
2019-06-27T07:51:26.025Z,20
2019-06-27T07:56:28.507Z,20
2019-06-27T08:01:35.294Z,20.1
2019-06-27T08:06:33.383Z,20.1
2019-06-27T08:11:35.785Z,20.2
2019-06-27T08:16:38.367Z,20.2
2019-06-27T08:21:40.692Z,20.3
2019-06-27T08:26:44.649Z,20.3
2019-06-27T08:36:48.015Z,20.4
2019-06-27T08:46:52.883Z,20.5
2019-06-27T08:51:55.347Z,20.6
2019-06-27T08:56:57.759Z,20.6
2019-06-27T09:02:08.259Z,20.7
2019-06-27T09:07:02.649Z,20.7
2019-06-27T09:12:05.166Z,20.7
2019-06-27T09:17:07.715Z,20.7
2019-06-27T09:22:10.027Z,20.8
2019-06-27T09:27:12.438Z,20.9
2019-06-27T09:32:24.603Z,21.1
2019-06-27T09:37:17.355Z,21.2
2019-06-27T09:42:19.801Z,21.3
2019-06-27T09:47:22.171Z,21.4
2019-06-27T09:52:24.887Z,21.5
2019-06-27T09:57:27.069Z,21.5
2019-06-27T10:02:40.778Z,21.6
2019-06-27T10:07:32.017Z,21.8
2019-06-27T10:12:42.083Z,21.9
2019-06-27T10:17:37.030Z,22.2
2019-06-27T10:22:39.298Z,22.3
2019-06-27T10:27:41.774Z,22.4
2019-06-27T10:37:46.623Z,22.6
2019-06-27T10:42:49.093Z,22.9
2019-06-27T10:47:51.632Z,23.1
2019-06-27T10:52:54.161Z,23.4
2019-06-27T10:57:56.354Z,23.6
2019-06-27T11:08:01.357Z,24.4
2019-06-27T11:13:03.777Z,24.6
2019-06-27T11:18:06.199Z,24.9
2019-06-27T11:23:08.614Z,25.2
2019-06-27T11:28:11.027Z,25.5
2019-06-27T11:33:13.485Z,25.8
2019-06-27T11:38:15.938Z,26
2019-06-27T11:43:18.353Z,26.1
2019-06-27T11:48:20.787Z,26.3
2019-06-27T11:53:23.248Z,26.4
2019-06-27T11:58:25.785Z,26.4
2019-06-27T12:03:28.124Z,26.6
2019-06-27T12:08:30.599Z,26.6
2019-06-27T12:13:33.006Z,26.5
2019-06-27T12:18:35.864Z,26.6
2019-06-27T12:23:37.953Z,26.9
2019-06-27T12:28:40.310Z,27
2019-06-27T12:33:42.763Z,27
2019-06-27T12:38:45.226Z,27.1
2019-06-27T12:43:47.792Z,27.2
2019-06-27T12:48:50.141Z,27.5
2019-06-27T12:53:55.630Z,27.7
2019-06-27T12:58:54.975Z,27.9
2019-06-27T13:03:57.449Z,28
2019-06-27T13:08:59.854Z,27.9
2019-06-27T13:14:02.304Z,28.2
2019-06-27T13:19:04.854Z,28.3
2019-06-27T13:24:07.279Z,28.3
2019-06-27T13:29:09.648Z,28.3
2019-06-27T13:34:12.164Z,28.3
2019-06-27T13:39:14.551Z,28
2019-06-27T13:44:16.953Z,28
2019-06-27T13:49:19.418Z,28.3
2019-06-27T13:59:24.516Z,28.8
2019-06-27T14:04:26.700Z,28.8
2019-06-27T14:09:29.260Z,28.8
2019-06-27T14:14:31.686Z,28.9
2019-06-27T14:19:34.515Z,29.3
2019-06-27T14:24:36.561Z,29.5
2019-06-27T14:29:39.030Z,29.8
2019-06-27T14:34:41.587Z,30.3
2019-06-27T14:39:43.880Z,30.6
2019-06-27T14:44:46.250Z,30.7
2019-06-27T14:49:48.741Z,31.3
2019-06-27T14:54:51.160Z,32
2019-06-27T14:59:53.723Z,32.2
2019-06-27T15:04:56.009Z,32.8
2019-06-27T15:09:58.568Z,33.5
2019-06-27T15:15:00.966Z,34.4
2019-06-27T15:20:03.343Z,34.8
2019-06-27T15:25:05.821Z,35.2
2019-06-27T15:30:08.231Z,35.6
2019-06-27T15:35:10.895Z,35.9
2019-06-27T15:40:13.117Z,36.1
2019-06-27T15:45:15.575Z,36.7
2019-06-27T15:50:18.019Z,37.1
2019-06-27T15:55:20.555Z,37.2
2019-06-27T16:00:22.875Z,36.4
2019-06-27T16:05:25.381Z,35.6
2019-06-27T16:10:27.800Z,34.8
2019-06-27T16:15:30.258Z,34.4
2019-06-27T16:20:32.742Z,33.9
2019-06-27T16:25:35.099Z,33.2
2019-06-27T16:30:37.617Z,32.4
2019-06-27T16:35:39.965Z,31.6
2019-06-27T16:40:42.488Z,30.1
2019-06-27T16:45:45.010Z,28.8
2019-06-27T16:50:47.311Z,27.9
2019-06-27T16:55:49.862Z,27.3
2019-06-27T17:00:52.328Z,26.8
2019-06-27T17:05:54.780Z,26.4
2019-06-27T17:10:58.735Z,26.2
2019-06-27T17:15:59.593Z,26
2019-06-27T17:21:01.966Z,25.9
2019-06-27T17:26:11.092Z,25.6
2019-06-27T17:31:06.995Z,25.5
2019-06-27T17:36:09.275Z,25.4
2019-06-27T17:41:11.705Z,25.2
2019-06-27T17:46:14.213Z,25
2019-06-27T17:51:16.605Z,24.8
2019-06-27T17:56:19.215Z,24.7
2019-06-27T18:01:21.541Z,24.6
2019-06-27T18:06:24.078Z,24.4
2019-06-27T18:11:26.376Z,24.2
2019-06-27T18:16:28.832Z,24.1
2019-06-27T18:21:31.283Z,23.9
2019-06-27T18:26:33.734Z,23.8
2019-06-27T18:31:36.143Z,23.6
2019-06-27T18:36:38.580Z,23.5
2019-06-27T18:41:41.080Z,23.4
2019-06-27T18:46:43.495Z,23.2
2019-06-27T18:51:45.918Z,23
2019-06-27T18:56:48.347Z,22.9
2019-06-27T19:01:50.815Z,22.7
2019-06-27T19:06:53.216Z,22.6
2019-06-27T19:11:55.671Z,22.4
2019-06-27T19:16:58.151Z,22.3
2019-06-27T19:22:00.567Z,22.1
2019-06-27T19:27:02.982Z,22
2019-06-27T19:32:05.432Z,21.8
2019-06-27T19:37:07.958Z,21.7
2019-06-27T19:42:10.330Z,21.6
2019-06-27T19:47:12.777Z,21.5
2019-06-27T19:52:15.336Z,21.4
2019-06-27T19:57:17.652Z,21.2
2019-06-27T20:02:20.140Z,21.1
2019-06-27T20:07:22.548Z,21
2019-06-27T20:12:24.965Z,21
2019-06-27T20:17:27.757Z,20.8
2019-06-27T20:22:29.938Z,20.7
2019-06-27T20:27:32.473Z,20.6
2019-06-27T20:32:34.805Z,20.5
2019-06-27T20:37:37.282Z,20.4
2019-06-27T20:42:39.737Z,20.3
2019-06-27T20:47:42.061Z,20.2
2019-06-27T20:52:44.739Z,20.1
2019-06-27T20:57:46.945Z,20
2019-06-27T21:02:49.443Z,20
2019-06-27T21:07:51.881Z,19.9
2019-06-27T21:12:54.489Z,19.9
2019-06-27T21:17:56.728Z,19.8
2019-06-27T21:22:59.412Z,19.7
2019-06-27T21:28:01.619Z,19.6
2019-06-27T21:33:04.129Z,19.6
2019-06-27T21:38:06.761Z,19.5
2019-06-27T21:43:08.900Z,19.4
2019-06-27T21:48:11.441Z,19.3
2019-06-27T21:53:13.791Z,19.2
2019-06-27T21:58:16.233Z,19
2019-06-27T22:03:18.733Z,19
2019-06-27T22:08:21.126Z,18.8
2019-06-27T22:13:23.609Z,18.7
2019-06-27T22:18:26.103Z,18.6
2019-06-27T22:23:28.435Z,18.6
2019-06-27T22:28:30.879Z,18.5
2019-06-27T22:33:33.311Z,18.4
2019-06-27T22:38:35.789Z,18.3
2019-06-27T22:43:38.254Z,18.2
2019-06-27T22:48:40.760Z,18.1
2019-06-27T22:53:43.086Z,18
2019-06-27T22:58:45.599Z,17.9
2019-06-27T23:03:47.988Z,17.9
2019-06-27T23:08:50.420Z,17.7
2019-06-27T23:13:52.863Z,17.6
2019-06-27T23:18:55.384Z,17.5
2019-06-27T23:23:57.758Z,17.4
2019-06-27T23:29:00.167Z,17.4
2019-06-27T23:34:02.813Z,17.3
2019-06-27T23:39:05.178Z,17.2
2019-06-27T23:44:07.524Z,17.2
2019-06-27T23:54:12.363Z,16.9
2019-06-27T23:59:14.808Z,16.8
